Terminal Aerodrome Forecast
Issued by NWS

Current Version | Previous Version | Text Only | Print | Product List | Glossary On
Versions: 1 2 3 4 5 6 7 8 9 10 11 12 13 14 15 16
000
FTUS42 KMLB 042337
TAFFPR
TAF
KFPR 042337Z 0500/0524 14012G18KT P6SM SCT025 SCT035
     FM050100 18007KT P6SM SCT020 SCT030
     FM050900 VRB03KT 6SM BR FEW010 SCT025
     FM051300 19010KT P6SM SCT025 SCT035=

USA.gov is the U.S. government's official web portal to all federal, state and local government web resources and services.